Breckenridge, Minnesota
Current Conditions -  °F | °C
As of 4:55 PM on Saturday 25 Oct 2014 (Local Time) from KBWP Reporting Station
Clear Clear  
Wind Chill: 59°   Ceiling: Unl
Heat Index: 59°   Visibility: 10mi
Dew Point: 18°   Wind: 13mph
Humidity: 20%   Direction: 320°NW
Pressure: 30.09"   Gusts: NA
Location:  46.26°N, 96.59°W
Report Text: KBWP 252155Z AUTO 32011KT 10SM CLR 15/M08 A3009 RMK AO1
Loading
Personal Weather Stations






























Interactive Weather Map
Tropical Storm Tracking
New forecast layout! Learn more

10-Day Weather Forecast

Advertisements
Track Severe Weather on mobile